sensor_id;sensor_type;location;lat;lon;timestamp;P1;durP1;ratioP1;P2;durP2;ratioP2
68744;SDS011;66104;45.456;11.064;2023-01-28T00:02:04;12.30;;;6.70;;
68744;SDS011;66104;45.456;11.064;2023-01-28T00:04:41;10.80;;;6.20;;
68744;SDS011;66104;45.456;11.064;2023-01-28T00:07:18;13.70;;;8.10;;
68744;SDS011;66104;45.456;11.064;2023-01-28T00:09:58;13.80;;;7.80;;
68744;SDS011;66104;45.456;11.064;2023-01-28T00:12:35;14.00;;;7.30;;
68744;SDS011;66104;45.456;11.064;2023-01-28T00:15:13;14.50;;;6.60;;
68744;SDS011;66104;45.456;11.064;2023-01-28T00:17:50;14.90;;;7.50;;
68744;SDS011;66104;45.456;11.064;2023-01-28T00:20:27;13.00;;;7.20;;
68744;SDS011;66104;45.456;11.064;2023-01-28T00:23:04;12.80;;;6.60;;
68744;SDS011;66104;45.456;11.064;2023-01-28T00:25:40;12.50;;;6.30;;
68744;SDS011;66104;45.456;11.064;2023-01-28T00:28:17;14.40;;;7.10;;
68744;SDS011;66104;45.456;11.064;2023-01-28T00:30:53;11.10;;;5.90;;
68744;SDS011;66104;45.456;11.064;2023-01-28T00:33:30;12.30;;;6.60;;
68744;SDS011;66104;45.456;11.064;2023-01-28T00:36:08;11.70;;;6.90;;
68744;SDS011;66104;45.456;11.064;2023-01-28T00:38:50;12.10;;;6.70;;
68744;SDS011;66104;45.456;11.064;2023-01-28T00:41:28;10.50;;;6.00;;
68744;SDS011;66104;45.456;11.064;2023-01-28T00:44:07;12.70;;;6.80;;
68744;SDS011;66104;45.456;11.064;2023-01-28T00:46:44;11.30;;;6.30;;
68744;SDS011;66104;45.456;11.064;2023-01-28T00:49:20;11.60;;;5.80;;
68744;SDS011;66104;45.456;11.064;2023-01-28T00:51:57;11.90;;;7.00;;
68744;SDS011;66104;45.456;11.064;2023-01-28T00:54:35;12.40;;;6.90;;
68744;SDS011;66104;45.456;11.064;2023-01-28T00:57:12;15.40;;;7.60;;
68744;SDS011;66104;45.456;11.064;2023-01-28T00:59:49;13.40;;;6.70;;
68744;SDS011;66104;45.456;11.064;2023-01-28T01:02:25;12.10;;;7.30;;
68744;SDS011;66104;45.456;11.064;2023-01-28T01:05:02;17.40;;;12.20;;
68744;SDS011;66104;45.456;11.064;2023-01-28T01:07:42;15.10;;;8.10;;
68744;SDS011;66104;45.456;11.064;2023-01-28T01:10:19;13.50;;;7.20;;
68744;SDS011;66104;45.456;11.064;2023-01-28T01:12:56;12.40;;;6.60;;
68744;SDS011;66104;45.456;11.064;2023-01-28T01:15:33;11.70;;;6.80;;
68744;SDS011;66104;45.456;11.064;2023-01-28T01:18:09;13.70;;;7.20;;
68744;SDS011;66104;45.456;11.064;2023-01-28T01:20:47;12.10;;;6.80;;
68744;SDS011;66104;45.456;11.064;2023-01-28T01:23:30;13.30;;;7.10;;
68744;SDS011;66104;45.456;11.064;2023-01-28T01:26:07;13.00;;;7.30;;
68744;SDS011;66104;45.456;11.064;2023-01-28T01:28:43;11.00;;;6.60;;
68744;SDS011;66104;45.456;11.064;2023-01-28T01:31:21;11.00;;;5.90;;
68744;SDS011;66104;45.456;11.064;2023-01-28T01:33:57;12.60;;;7.00;;
68744;SDS011;66104;45.456;11.064;2023-01-28T01:36:33;12.10;;;6.40;;
68744;SDS011;66104;45.456;11.064;2023-01-28T01:39:12;14.70;;;7.60;;
68744;SDS011;66104;45.456;11.064;2023-01-28T01:41:48;11.40;;;6.70;;
68744;SDS011;66104;45.456;11.064;2023-01-28T01:44:54;13.00;;;6.50;;
68744;SDS011;66104;45.456;11.064;2023-01-28T01:47:37;12.30;;;6.80;;
68744;SDS011;66104;45.456;11.064;2023-01-28T01:50:24;10.50;;;5.90;;
68744;SDS011;66104;45.456;11.064;2023-01-28T01:53:08;14.00;;;8.20;;
68744;SDS011;66104;45.456;11.064;2023-01-28T01:55:48;11.80;;;6.80;;
68744;SDS011;66104;45.456;11.064;2023-01-28T01:58:29;12.40;;;7.60;;
68744;SDS011;66104;45.456;11.064;2023-01-28T02:01:08;12.80;;;6.30;;
68744;SDS011;66104;45.456;11.064;2023-01-28T02:03:52;13.30;;;6.90;;
68744;SDS011;66104;45.456;11.064;2023-01-28T02:06:35;12.80;;;7.10;;
68744;SDS011;66104;45.456;11.064;2023-01-28T02:09:26;15.20;;;7.50;;
68744;SDS011;66104;45.456;11.064;2023-01-28T02:12:07;12.30;;;7.30;;
68744;SDS011;66104;45.456;11.064;2023-01-28T02:14:49;11.90;;;6.30;;
68744;SDS011;66104;45.456;11.064;2023-01-28T02:17:29;11.90;;;6.10;;
68744;SDS011;66104;45.456;11.064;2023-01-28T02:20:11;12.70;;;6.80;;
68744;SDS011;66104;45.456;11.064;2023-01-28T02:26:24;11.30;;;6.60;;
68744;SDS011;66104;45.456;11.064;2023-01-28T02:29:17;10.10;;;5.80;;
68744;SDS011;66104;45.456;11.064;2023-01-28T02:32:02;13.70;;;6.90;;
68744;SDS011;66104;45.456;11.064;2023-01-28T02:34:45;12.70;;;6.90;;
68744;SDS011;66104;45.456;11.064;2023-01-28T02:37:30;12.00;;;6.70;;
68744;SDS011;66104;45.456;11.064;2023-01-28T02:40:15;12.40;;;6.40;;
68744;SDS011;66104;45.456;11.064;2023-01-28T02:42:55;14.10;;;6.70;;
68744;SDS011;66104;45.456;11.064;2023-01-28T02:45:33;11.80;;;6.70;;
68744;SDS011;66104;45.456;11.064;2023-01-28T02:48:24;12.00;;;7.10;;
68744;SDS011;66104;45.456;11.064;2023-01-28T02:51:09;13.20;;;6.50;;
68744;SDS011;66104;45.456;11.064;2023-01-28T02:54:01;14.20;;;6.90;;
68744;SDS011;66104;45.456;11.064;2023-01-28T02:56:47;12.50;;;6.70;;
68744;SDS011;66104;45.456;11.064;2023-01-28T02:59:37;11.30;;;6.60;;
68744;SDS011;66104;45.456;11.064;2023-01-28T03:02:24;12.40;;;7.20;;
68744;SDS011;66104;45.456;11.064;2023-01-28T03:05:12;12.70;;;6.80;;
68744;SDS011;66104;45.456;11.064;2023-01-28T03:07:53;13.00;;;6.80;;
68744;SDS011;66104;45.456;11.064;2023-01-28T03:10:30;13.10;;;7.30;;
68744;SDS011;66104;45.456;11.064;2023-01-28T03:13:07;10.50;;;5.90;;
68744;SDS011;66104;45.456;11.064;2023-01-28T03:16:00;12.40;;;7.30;;
68744;SDS011;66104;45.456;11.064;2023-01-28T03:18:55;14.10;;;7.80;;
68744;SDS011;66104;45.456;11.064;2023-01-28T03:21:49;12.70;;;6.60;;
68744;SDS011;66104;45.456;11.064;2023-01-28T03:24:46;15.00;;;6.90;;
68744;SDS011;66104;45.456;11.064;2023-01-28T03:27:46;11.40;;;6.20;;
68744;SDS011;66104;45.456;11.064;2023-01-28T03:30:46;11.70;;;6.50;;
68744;SDS011;66104;45.456;11.064;2023-01-28T03:33:51;16.50;;;7.70;;
68744;SDS011;66104;45.456;11.064;2023-01-28T03:36:47;12.60;;;7.10;;
68744;SDS011;66104;45.456;11.064;2023-01-28T03:39:46;10.60;;;6.60;;
68744;SDS011;66104;45.456;11.064;2023-01-28T03:42:21;13.50;;;7.90;;
68744;SDS011;66104;45.456;11.064;2023-01-28T03:45:06;13.70;;;7.20;;
68744;SDS011;66104;45.456;11.064;2023-01-28T03:47:48;10.90;;;6.40;;
68744;SDS011;66104;45.456;11.064;2023-01-28T03:50:24;11.80;;;6.40;;
68744;SDS011;66104;45.456;11.064;2023-01-28T03:53:03;13.80;;;7.40;;
68744;SDS011;66104;45.456;11.064;2023-01-28T03:55:51;17.90;;;7.60;;
68744;SDS011;66104;45.456;11.064;2023-01-28T03:58:29;12.10;;;7.00;;
68744;SDS011;66104;45.456;11.064;2023-01-28T04:01:22;12.50;;;6.70;;
68744;SDS011;66104;45.456;11.064;2023-01-28T04:03:59;14.90;;;8.20;;
68744;SDS011;66104;45.456;11.064;2023-01-28T04:06:38;15.00;;;8.10;;
68744;SDS011;66104;45.456;11.064;2023-01-28T04:09:40;13.70;;;7.00;;
68744;SDS011;66104;45.456;11.064;2023-01-28T04:12:39;13.40;;;7.40;;
68744;SDS011;66104;45.456;11.064;2023-01-28T04:15:16;12.70;;;7.30;;
68744;SDS011;66104;45.456;11.064;2023-01-28T04:17:52;12.20;;;7.10;;
68744;SDS011;66104;45.456;11.064;2023-01-28T04:20:31;13.30;;;7.10;;
68744;SDS011;66104;45.456;11.064;2023-01-28T04:23:07;12.00;;;6.60;;
68744;SDS011;66104;45.456;11.064;2023-01-28T04:25:44;14.20;;;6.90;;
68744;SDS011;66104;45.456;11.064;2023-01-28T04:28:22;11.70;;;6.60;;
68744;SDS011;66104;45.456;11.064;2023-01-28T04:30:59;13.80;;;6.80;;
68744;SDS011;66104;45.456;11.064;2023-01-28T04:33:56;12.70;;;6.20;;
68744;SDS011;66104;45.456;11.064;2023-01-28T04:36:56;14.60;;;6.80;;
68744;SDS011;66104;45.456;11.064;2023-01-28T04:39:45;14.20;;;7.20;;
68744;SDS011;66104;45.456;11.064;2023-01-28T04:42:41;13.30;;;6.50;;
68744;SDS011;66104;45.456;11.064;2023-01-28T04:45:48;15.40;;;7.40;;
68744;SDS011;66104;45.456;11.064;2023-01-28T04:48:44;11.30;;;6.80;;
68744;SDS011;66104;45.456;11.064;2023-01-28T04:51:23;11.50;;;5.90;;
68744;SDS011;66104;45.456;11.064;2023-01-28T04:54:15;11.10;;;6.50;;
68744;SDS011;66104;45.456;11.064;2023-01-28T04:56:52;13.30;;;7.50;;
68744;SDS011;66104;45.456;11.064;2023-01-28T04:59:28;13.20;;;7.00;;
68744;SDS011;66104;45.456;11.064;2023-01-28T05:02:05;13.10;;;6.90;;
68744;SDS011;66104;45.456;11.064;2023-01-28T05:04:42;14.40;;;7.40;;
68744;SDS011;66104;45.456;11.064;2023-01-28T05:07:35;12.00;;;6.70;;
68744;SDS011;66104;45.456;11.064;2023-01-28T05:10:14;14.70;;;7.60;;
68744;SDS011;66104;45.456;11.064;2023-01-28T05:12:52;14.00;;;8.10;;
68744;SDS011;66104;45.456;11.064;2023-01-28T05:15:29;16.80;;;8.40;;
68744;SDS011;66104;45.456;11.064;2023-01-28T05:18:06;15.70;;;7.80;;
68744;SDS011;66104;45.456;11.064;2023-01-28T05:20:48;14.40;;;7.00;;
68744;SDS011;66104;45.456;11.064;2023-01-28T05:23:25;12.40;;;7.00;;
68744;SDS011;66104;45.456;11.064;2023-01-28T05:26:02;13.80;;;8.00;;
68744;SDS011;66104;45.456;11.064;2023-01-28T05:28:39;13.10;;;7.40;;
68744;SDS011;66104;45.456;11.064;2023-01-28T05:31:16;14.90;;;7.20;;
68744;SDS011;66104;45.456;11.064;2023-01-28T05:33:53;15.10;;;7.20;;
68744;SDS011;66104;45.456;11.064;2023-01-28T05:36:29;16.00;;;8.60;;
68744;SDS011;66104;45.456;11.064;2023-01-28T05:39:18;17.30;;;8.20;;
68744;SDS011;66104;45.456;11.064;2023-01-28T05:41:55;13.00;;;7.50;;
68744;SDS011;66104;45.456;11.064;2023-01-28T05:44:32;14.70;;;8.00;;
68744;SDS011;66104;45.456;11.064;2023-01-28T05:47:25;17.10;;;8.20;;
68744;SDS011;66104;45.456;11.064;2023-01-28T05:50:12;14.90;;;7.50;;
68744;SDS011;66104;45.456;11.064;2023-01-28T05:53:09;15.50;;;7.50;;
68744;SDS011;66104;45.456;11.064;2023-01-28T05:55:48;17.00;;;8.50;;
68744;SDS011;66104;45.456;11.064;2023-01-28T05:58:26;14.70;;;7.50;;
68744;SDS011;66104;45.456;11.064;2023-01-28T06:01:05;14.70;;;7.80;;
68744;SDS011;66104;45.456;11.064;2023-01-28T06:03:44;12.70;;;7.30;;
68744;SDS011;66104;45.456;11.064;2023-01-28T06:06:21;13.90;;;7.60;;
68744;SDS011;66104;45.456;11.064;2023-01-28T06:08:57;15.10;;;7.60;;
68744;SDS011;66104;45.456;11.064;2023-01-28T06:11:34;18.40;;;8.20;;
68744;SDS011;66104;45.456;11.064;2023-01-28T06:14:10;15.60;;;7.50;;
68744;SDS011;66104;45.456;11.064;2023-01-28T06:17:05;14.50;;;8.90;;
68744;SDS011;66104;45.456;11.064;2023-01-28T06:19:55;13.30;;;7.00;;
68744;SDS011;66104;45.456;11.064;2023-01-28T06:22:34;13.80;;;7.60;;
68744;SDS011;66104;45.456;11.064;2023-01-28T06:25:11;13.40;;;7.60;;
68744;SDS011;66104;45.456;11.064;2023-01-28T06:27:49;13.00;;;7.20;;
68744;SDS011;66104;45.456;11.064;2023-01-28T06:30:27;13.50;;;7.00;;
68744;SDS011;66104;45.456;11.064;2023-01-28T06:33:04;12.20;;;7.40;;
68744;SDS011;66104;45.456;11.064;2023-01-28T06:35:41;13.90;;;6.80;;
68744;SDS011;66104;45.456;11.064;2023-01-28T06:38:17;14.40;;;6.50;;
68744;SDS011;66104;45.456;11.064;2023-01-28T06:40:54;12.30;;;6.40;;
68744;SDS011;66104;45.456;11.064;2023-01-28T06:43:31;12.30;;;6.40;;
68744;SDS011;66104;45.456;11.064;2023-01-28T06:46:08;13.80;;;6.80;;
68744;SDS011;66104;45.456;11.064;2023-01-28T06:48:44;13.30;;;6.70;;
68744;SDS011;66104;45.456;11.064;2023-01-28T06:51:21;11.80;;;6.50;;
68744;SDS011;66104;45.456;11.064;2023-01-28T06:53:57;15.70;;;7.10;;
68744;SDS011;66104;45.456;11.064;2023-01-28T06:56:33;13.00;;;6.50;;
68744;SDS011;66104;45.456;11.064;2023-01-28T06:59:11;13.40;;;6.30;;
68744;SDS011;66104;45.456;11.064;2023-01-28T07:01:48;13.60;;;7.30;;
68744;SDS011;66104;45.456;11.064;2023-01-28T07:04:24;15.70;;;7.30;;
68744;SDS011;66104;45.456;11.064;2023-01-28T07:07:01;12.70;;;6.10;;
68744;SDS011;66104;45.456;11.064;2023-01-28T07:09:39;13.60;;;6.30;;
68744;SDS011;66104;45.456;11.064;2023-01-28T07:12:15;13.20;;;6.20;;
68744;SDS011;66104;45.456;11.064;2023-01-28T07:14:51;11.60;;;6.30;;
68744;SDS011;66104;45.456;11.064;2023-01-28T07:17:28;12.80;;;6.20;;
68744;SDS011;66104;45.456;11.064;2023-01-28T07:20:07;11.10;;;5.80;;
68744;SDS011;66104;45.456;11.064;2023-01-28T07:22:48;11.70;;;6.10;;
68744;SDS011;66104;45.456;11.064;2023-01-28T07:25:24;14.10;;;6.10;;
68744;SDS011;66104;45.456;11.064;2023-01-28T07:28:02;13.00;;;6.30;;
68744;SDS011;66104;45.456;11.064;2023-01-28T07:30:39;12.30;;;6.00;;
68744;SDS011;66104;45.456;11.064;2023-01-28T07:33:16;12.70;;;6.20;;
68744;SDS011;66104;45.456;11.064;2023-01-28T07:35:52;12.00;;;6.30;;
68744;SDS011;66104;45.456;11.064;2023-01-28T07:38:29;11.00;;;5.80;;
68744;SDS011;66104;45.456;11.064;2023-01-28T07:41:06;13.40;;;6.80;;
68744;SDS011;66104;45.456;11.064;2023-01-28T07:43:44;11.10;;;6.20;;
68744;SDS011;66104;45.456;11.064;2023-01-28T07:46:20;15.40;;;6.10;;
68744;SDS011;66104;45.456;11.064;2023-01-28T07:48:58;10.60;;;5.90;;
68744;SDS011;66104;45.456;11.064;2023-01-28T07:51:34;8.80;;;5.30;;
68744;SDS011;66104;45.456;11.064;2023-01-28T07:54:11;14.20;;;5.90;;
68744;SDS011;66104;45.456;11.064;2023-01-28T07:56:49;16.40;;;6.20;;
68744;SDS011;66104;45.456;11.064;2023-01-28T07:59:25;11.70;;;5.50;;
68744;SDS011;66104;45.456;11.064;2023-01-28T08:02:02;12.50;;;7.30;;
68744;SDS011;66104;45.456;11.064;2023-01-28T08:04:39;12.70;;;7.80;;
68744;SDS011;66104;45.456;11.064;2023-01-28T08:07:16;12.50;;;7.80;;
68744;SDS011;66104;45.456;11.064;2023-01-28T08:09:52;14.30;;;7.20;;
68744;SDS011;66104;45.456;11.064;2023-01-28T08:12:28;13.80;;;8.00;;
68744;SDS011;66104;45.456;11.064;2023-01-28T08:15:08;14.10;;;7.80;;
68744;SDS011;66104;45.456;11.064;2023-01-28T08:17:46;11.90;;;7.10;;
68744;SDS011;66104;45.456;11.064;2023-01-28T08:20:23;15.70;;;7.20;;
68744;SDS011;66104;45.456;11.064;2023-01-28T08:23:08;14.00;;;7.70;;
68744;SDS011;66104;45.456;11.064;2023-01-28T08:25:47;11.90;;;7.50;;
68744;SDS011;66104;45.456;11.064;2023-01-28T08:28:23;12.50;;;7.00;;
68744;SDS011;66104;45.456;11.064;2023-01-28T08:31:00;14.10;;;7.70;;
68744;SDS011;66104;45.456;11.064;2023-01-28T08:33:37;12.90;;;7.80;;
68744;SDS011;66104;45.456;11.064;2023-01-28T08:36:14;12.50;;;6.60;;
68744;SDS011;66104;45.456;11.064;2023-01-28T08:38:55;11.80;;;6.60;;
68744;SDS011;66104;45.456;11.064;2023-01-28T08:41:32;13.40;;;7.20;;
68744;SDS011;66104;45.456;11.064;2023-01-28T08:44:09;13.80;;;6.50;;
68744;SDS011;66104;45.456;11.064;2023-01-28T08:46:46;12.30;;;6.90;;
68744;SDS011;66104;45.456;11.064;2023-01-28T08:49:24;12.70;;;6.50;;
68744;SDS011;66104;45.456;11.064;2023-01-28T08:52:00;12.30;;;6.40;;
68744;SDS011;66104;45.456;11.064;2023-01-28T08:54:37;12.90;;;6.60;;
68744;SDS011;66104;45.456;11.064;2023-01-28T08:57:14;13.80;;;8.00;;
68744;SDS011;66104;45.456;11.064;2023-01-28T08:59:51;14.30;;;7.40;;
68744;SDS011;66104;45.456;11.064;2023-01-28T09:02:28;12.90;;;8.00;;
68744;SDS011;66104;45.456;11.064;2023-01-28T09:05:05;15.80;;;7.00;;
68744;SDS011;66104;45.456;11.064;2023-01-28T09:07:44;13.00;;;7.00;;
68744;SDS011;66104;45.456;11.064;2023-01-28T09:10:21;16.40;;;8.20;;
68744;SDS011;66104;45.456;11.064;2023-01-28T09:12:57;15.00;;;7.60;;
68744;SDS011;66104;45.456;11.064;2023-01-28T09:15:37;13.50;;;8.00;;
68744;SDS011;66104;45.456;11.064;2023-01-28T09:18:14;13.50;;;7.40;;
68744;SDS011;66104;45.456;11.064;2023-01-28T09:20:50;15.10;;;7.90;;
68744;SDS011;66104;45.456;11.064;2023-01-28T09:23:27;16.00;;;8.50;;
68744;SDS011;66104;45.456;11.064;2023-01-28T09:26:06;11.80;;;6.80;;
68744;SDS011;66104;45.456;11.064;2023-01-28T09:28:43;12.20;;;7.30;;
68744;SDS011;66104;45.456;11.064;2023-01-28T09:31:22;12.10;;;6.70;;
68744;SDS011;66104;45.456;11.064;2023-01-28T09:33:58;12.00;;;6.80;;
68744;SDS011;66104;45.456;11.064;2023-01-28T09:36:34;12.80;;;7.50;;
68744;SDS011;66104;45.456;11.064;2023-01-28T09:39:11;15.10;;;6.80;;
68744;SDS011;66104;45.456;11.064;2023-01-28T09:41:55;11.70;;;7.00;;
68744;SDS011;66104;45.456;11.064;2023-01-28T09:44:55;12.70;;;6.50;;
68744;SDS011;66104;45.456;11.064;2023-01-28T09:47:42;13.80;;;7.30;;
68744;SDS011;66104;45.456;11.064;2023-01-28T09:50:25;12.80;;;6.70;;
68744;SDS011;66104;45.456;11.064;2023-01-28T09:53:09;12.80;;;7.00;;
68744;SDS011;66104;45.456;11.064;2023-01-28T09:55:52;13.80;;;6.90;;
68744;SDS011;66104;45.456;11.064;2023-01-28T09:58:32;13.00;;;7.10;;
68744;SDS011;66104;45.456;11.064;2023-01-28T10:01:29;11.20;;;6.50;;
68744;SDS011;66104;45.456;11.064;2023-01-28T10:04:22;12.90;;;6.50;;
68744;SDS011;66104;45.456;11.064;2023-01-28T10:07:24;11.80;;;6.70;;
68744;SDS011;66104;45.456;11.064;2023-01-28T10:10:11;10.90;;;6.50;;
68744;SDS011;66104;45.456;11.064;2023-01-28T10:15:58;13.20;;;7.80;;
68744;SDS011;66104;45.456;11.064;2023-01-28T10:18:47;12.70;;;6.80;;
68744;SDS011;66104;45.456;11.064;2023-01-28T10:21:30;13.90;;;7.60;;
68744;SDS011;66104;45.456;11.064;2023-01-28T10:24:16;15.40;;;7.30;;
68744;SDS011;66104;45.456;11.064;2023-01-28T10:26:57;13.10;;;7.40;;
68744;SDS011;66104;45.456;11.064;2023-01-28T10:29:34;16.40;;;9.70;;
68744;SDS011;66104;45.456;11.064;2023-01-28T10:32:25;15.50;;;8.40;;
68744;SDS011;66104;45.456;11.064;2023-01-28T10:35:05;13.30;;;7.50;;
68744;SDS011;66104;45.456;11.064;2023-01-28T10:37:43;11.90;;;7.30;;
68744;SDS011;66104;45.456;11.064;2023-01-28T10:40:21;14.50;;;8.30;;
68744;SDS011;66104;45.456;11.064;2023-01-28T10:42:58;14.20;;;8.00;;
68744;SDS011;66104;45.456;11.064;2023-01-28T10:45:39;13.10;;;8.20;;
68744;SDS011;66104;45.456;11.064;2023-01-28T10:48:25;14.10;;;7.80;;
68744;SDS011;66104;45.456;11.064;2023-01-28T10:51:06;13.10;;;7.30;;
68744;SDS011;66104;45.456;11.064;2023-01-28T10:53:44;16.20;;;9.10;;
68744;SDS011;66104;45.456;11.064;2023-01-28T10:56:26;19.30;;;9.00;;
68744;SDS011;66104;45.456;11.064;2023-01-28T10:59:17;14.00;;;8.30;;
68744;SDS011;66104;45.456;11.064;2023-01-28T11:01:57;15.60;;;8.80;;
68744;SDS011;66104;45.456;11.064;2023-01-28T11:04:35;16.10;;;8.50;;
68744;SDS011;66104;45.456;11.064;2023-01-28T11:07:19;14.70;;;8.60;;
68744;SDS011;66104;45.456;11.064;2023-01-28T11:09:55;14.70;;;8.20;;
68744;SDS011;66104;45.456;11.064;2023-01-28T11:12:32;14.80;;;8.30;;
68744;SDS011;66104;45.456;11.064;2023-01-28T11:15:19;15.10;;;8.90;;
68744;SDS011;66104;45.456;11.064;2023-01-28T11:17:58;14.00;;;8.10;;
68744;SDS011;66104;45.456;11.064;2023-01-28T11:20:40;12.20;;;7.40;;
68744;SDS011;66104;45.456;11.064;2023-01-28T11:23:25;12.80;;;7.80;;
68744;SDS011;66104;45.456;11.064;2023-01-28T11:26:12;13.80;;;8.00;;
68744;SDS011;66104;45.456;11.064;2023-01-28T11:28:50;15.20;;;7.00;;
68744;SDS011;66104;45.456;11.064;2023-01-28T11:31:28;13.70;;;8.10;;
68744;SDS011;66104;45.456;11.064;2023-01-28T11:34:18;13.90;;;7.10;;
68744;SDS011;66104;45.456;11.064;2023-01-28T11:37:11;11.90;;;6.30;;
68744;SDS011;66104;45.456;11.064;2023-01-28T11:39:48;13.40;;;8.00;;
68744;SDS011;66104;45.456;11.064;2023-01-28T11:42:35;12.40;;;7.60;;
68744;SDS011;66104;45.456;11.064;2023-01-28T11:45:18;13.80;;;7.30;;
68744;SDS011;66104;45.456;11.064;2023-01-28T11:48:09;12.80;;;7.00;;
68744;SDS011;66104;45.456;11.064;2023-01-28T11:50:59;10.80;;;7.00;;
68744;SDS011;66104;45.456;11.064;2023-01-28T11:54:01;10.40;;;6.40;;
68744;SDS011;66104;45.456;11.064;2023-01-28T11:57:05;11.30;;;6.40;;
68744;SDS011;66104;45.456;11.064;2023-01-28T12:00:06;10.40;;;6.60;;
68744;SDS011;66104;45.456;11.064;2023-01-28T12:03:14;10.90;;;6.40;;
68744;SDS011;66104;45.456;11.064;2023-01-28T12:09:42;11.70;;;6.40;;
68744;SDS011;66104;45.456;11.064;2023-01-28T12:12:42;9.70;;;6.00;;
68744;SDS011;66104;45.456;11.064;2023-01-28T12:15:51;10.00;;;6.00;;
68744;SDS011;66104;45.456;11.064;2023-01-28T12:22:15;11.20;;;6.10;;
68744;SDS011;66104;45.456;11.064;2023-01-28T12:25:17;10.50;;;5.70;;
68744;SDS011;66104;45.456;11.064;2023-01-28T12:28:16;12.30;;;5.60;;
68744;SDS011;66104;45.456;11.064;2023-01-28T12:31:11;9.60;;;5.30;;
68744;SDS011;66104;45.456;11.064;2023-01-28T12:34:10;10.80;;;5.90;;
68744;SDS011;66104;45.456;11.064;2023-01-28T12:38:17;10.70;;;5.80;;
68744;SDS011;66104;45.456;11.064;2023-01-28T12:41:06;9.80;;;5.80;;
68744;SDS011;66104;45.456;11.064;2023-01-28T12:43:53;9.00;;;5.20;;
68744;SDS011;66104;45.456;11.064;2023-01-28T12:46:43;9.40;;;5.50;;
68744;SDS011;66104;45.456;11.064;2023-01-28T12:49:26;9.80;;;5.50;;
68744;SDS011;66104;45.456;11.064;2023-01-28T12:52:15;8.40;;;5.50;;
68744;SDS011;66104;45.456;11.064;2023-01-28T12:55:01;10.90;;;5.90;;
68744;SDS011;66104;45.456;11.064;2023-01-28T12:57:45;9.40;;;5.50;;
68744;SDS011;66104;45.456;11.064;2023-01-28T13:00:29;10.10;;;5.80;;
68744;SDS011;66104;45.456;11.064;2023-01-28T13:03:13;11.10;;;5.70;;
68744;SDS011;66104;45.456;11.064;2023-01-28T13:06:00;9.50;;;5.70;;
68744;SDS011;66104;45.456;11.064;2023-01-28T13:08:41;10.40;;;5.90;;
68744;SDS011;66104;45.456;11.064;2023-01-28T13:11:19;15.40;;;6.80;;
68744;SDS011;66104;45.456;11.064;2023-01-28T13:13:57;12.60;;;6.20;;
68744;SDS011;66104;45.456;11.064;2023-01-28T13:16:36;8.20;;;5.30;;
68744;SDS011;66104;45.456;11.064;2023-01-28T13:19:24;10.70;;;6.30;;
68744;SDS011;66104;45.456;11.064;2023-01-28T13:22:25;9.00;;;5.40;;
68744;SDS011;66104;45.456;11.064;2023-01-28T13:25:22;9.30;;;5.10;;
68744;SDS011;66104;45.456;11.064;2023-01-28T13:28:02;7.70;;;4.70;;
68744;SDS011;66104;45.456;11.064;2023-01-28T13:30:49;11.40;;;5.30;;
68744;SDS011;66104;45.456;11.064;2023-01-28T13:33:34;8.50;;;5.40;;
68744;SDS011;66104;45.456;11.064;2023-01-28T13:36:27;8.90;;;5.60;;
68744;SDS011;66104;45.456;11.064;2023-01-28T13:39:13;9.40;;;5.80;;
68744;SDS011;66104;45.456;11.064;2023-01-28T13:41:51;9.50;;;5.70;;
68744;SDS011;66104;45.456;11.064;2023-01-28T13:44:31;11.20;;;6.40;;
68744;SDS011;66104;45.456;11.064;2023-01-28T13:47:21;10.60;;;6.60;;
68744;SDS011;66104;45.456;11.064;2023-01-28T13:50:10;9.90;;;5.90;;
68744;SDS011;66104;45.456;11.064;2023-01-28T13:52:54;11.40;;;6.90;;
68744;SDS011;66104;45.456;11.064;2023-01-28T13:55:37;11.40;;;6.50;;
68744;SDS011;66104;45.456;11.064;2023-01-28T14:05:29;9.20;;;5.20;;
68744;SDS011;66104;45.456;11.064;2023-01-28T14:15:39;14.50;;;6.00;;
68744;SDS011;66104;45.456;11.064;2023-01-28T14:18:34;8.70;;;5.30;;
68744;SDS011;66104;45.456;11.064;2023-01-28T14:21:18;11.30;;;6.20;;
68744;SDS011;66104;45.456;11.064;2023-01-28T14:23:58;11.00;;;5.80;;
68744;SDS011;66104;45.456;11.064;2023-01-28T14:26:44;9.60;;;5.80;;
68744;SDS011;66104;45.456;11.064;2023-01-28T14:29:40;11.40;;;6.10;;
68744;SDS011;66104;45.456;11.064;2023-01-28T14:32:27;9.90;;;5.70;;
68744;SDS011;66104;45.456;11.064;2023-01-28T14:35:07;11.00;;;7.30;;
68744;SDS011;66104;45.456;11.064;2023-01-28T14:37:50;11.60;;;7.00;;
68744;SDS011;66104;45.456;11.064;2023-01-28T14:40:27;12.90;;;6.90;;
68744;SDS011;66104;45.456;11.064;2023-01-28T14:43:07;11.60;;;6.80;;
68744;SDS011;66104;45.456;11.064;2023-01-28T14:46:01;9.00;;;5.70;;
68744;SDS011;66104;45.456;11.064;2023-01-28T14:48:54;10.90;;;6.20;;
68744;SDS011;66104;45.456;11.064;2023-01-28T14:52:00;11.20;;;7.00;;
68744;SDS011;66104;45.456;11.064;2023-01-28T14:54:57;12.20;;;7.00;;
68744;SDS011;66104;45.456;11.064;2023-01-28T14:57:50;10.90;;;6.30;;
68744;SDS011;66104;45.456;11.064;2023-01-28T15:00:30;12.60;;;7.10;;
68744;SDS011;66104;45.456;11.064;2023-01-28T15:03:18;15.30;;;8.00;;
68744;SDS011;66104;45.456;11.064;2023-01-28T15:06:11;10.70;;;6.50;;
68744;SDS011;66104;45.456;11.064;2023-01-28T15:08:48;16.30;;;7.40;;
68744;SDS011;66104;45.456;11.064;2023-01-28T15:11:27;12.40;;;6.80;;
68744;SDS011;66104;45.456;11.064;2023-01-28T15:14:07;12.20;;;6.80;;
68744;SDS011;66104;45.456;11.064;2023-01-28T15:16:50;12.80;;;7.30;;
68744;SDS011;66104;45.456;11.064;2023-01-28T15:19:28;14.70;;;9.10;;
68744;SDS011;66104;45.456;11.064;2023-01-28T15:22:07;15.30;;;7.80;;
68744;SDS011;66104;45.456;11.064;2023-01-28T15:24:48;17.00;;;8.20;;
68744;SDS011;66104;45.456;11.064;2023-01-28T15:27:28;13.30;;;7.70;;
68744;SDS011;66104;45.456;11.064;2023-01-28T15:33:14;12.30;;;7.10;;
68744;SDS011;66104;45.456;11.064;2023-01-28T15:35:54;13.30;;;7.70;;
68744;SDS011;66104;45.456;11.064;2023-01-28T15:38:31;11.20;;;6.90;;
68744;SDS011;66104;45.456;11.064;2023-01-28T15:41:09;13.80;;;8.00;;
68744;SDS011;66104;45.456;11.064;2023-01-28T15:43:48;12.70;;;7.00;;
68744;SDS011;66104;45.456;11.064;2023-01-28T15:46:26;11.80;;;7.30;;
68744;SDS011;66104;45.456;11.064;2023-01-28T15:49:03;11.00;;;6.50;;
68744;SDS011;66104;45.456;11.064;2023-01-28T15:51:52;11.40;;;6.20;;
68744;SDS011;66104;45.456;11.064;2023-01-28T15:54:28;11.30;;;6.40;;
68744;SDS011;66104;45.456;11.064;2023-01-28T15:57:20;10.50;;;5.90;;
68744;SDS011;66104;45.456;11.064;2023-01-28T16:00:17;11.40;;;6.70;;
68744;SDS011;66104;45.456;11.064;2023-01-28T16:02:57;14.60;;;8.30;;
68744;SDS011;66104;45.456;11.064;2023-01-28T16:05:42;10.30;;;6.40;;
68744;SDS011;66104;45.456;11.064;2023-01-28T16:08:45;9.20;;;5.60;;
68744;SDS011;66104;45.456;11.064;2023-01-28T16:11:27;9.60;;;5.20;;
68744;SDS011;66104;45.456;11.064;2023-01-28T16:14:14;8.50;;;5.10;;
68744;SDS011;66104;45.456;11.064;2023-01-28T16:16:56;11.90;;;6.00;;
68744;SDS011;66104;45.456;11.064;2023-01-28T16:19:36;9.80;;;6.60;;
68744;SDS011;66104;45.456;11.064;2023-01-28T16:22:22;11.00;;;7.50;;
68744;SDS011;66104;45.456;11.064;2023-01-28T16:28:15;11.20;;;7.40;;
68744;SDS011;66104;45.456;11.064;2023-01-28T16:30:53;18.50;;;8.00;;